Time;durP1;ratioP1;P1;durP2;ratioP2;P2;SDS_P1;SDS_P2;PMS_P1;PMS_P2;Temp;Humidity;BMP_temperature;BMP_pressure;BME280_temperature;BME280_humidity;BME280_pressure;Samples;Min_cycle;Max_cycle;Signal;HPM_P1;HPM_P2
2022/07/19 00:01:59;;;;;;;5.72;4.47;;;;;;;;;;5092353;28;20115;-64
2022/07/19 00:04:24;;;;;;;6.50;4.80;;;;;;;;;;5089222;28;20496;-65
2022/07/19 00:06:49;;;;;;;5.97;4.60;;;;;;;;;;5091681;28;20086;-64
2022/07/19 00:09:15;;;;;;;5.68;3.53;;;;;;;;;;5089034;28;20110;-65
2022/07/19 00:11:40;;;;;;;4.90;3.53;;;;;;;;;;5084497;28;20381;-65
2022/07/19 00:14:05;;;;;;;5.70;4.18;;;;;;;;;;5091611;28;20047;-64
2022/07/19 00:16:30;;;;;;;6.93;3.72;;;;;;;;;;5098043;28;20055;-64
2022/07/19 00:18:56;;;;;;;6.53;3.75;;;;;;;;;;5096801;28;20111;-64
2022/07/19 00:21:21;;;;;;;4.93;3.60;;;;;;;;;;5090325;28;20043;-65
2022/07/19 00:23:46;;;;;;;6.03;2.85;;;;;;;;;;5090523;28;20020;-64
2022/07/19 00:26:12;;;;;;;3.47;2.38;;;;;;;;;;5091588;28;20260;-65
2022/07/19 00:28:37;;;;;;;1.95;1.60;;;;;;;;;;5091499;28;20427;-64
2022/07/19 00:31:04;;;;;;;2.60;1.65;;;;;;;;;;5090869;28;20039;-64
2022/07/19 00:33:29;;;;;;;2.58;1.35;;;;;;;;;;5091420;28;20044;-64
2022/07/19 00:35:55;;;;;;;1.88;1.45;;;;;;;;;;5089698;28;20047;-63
2022/07/19 00:38:20;;;;;;;3.17;1.50;;;;;;;;;;5091975;28;20043;-65
2022/07/19 00:40:45;;;;;;;3.65;2.08;;;;;;;;;;5089106;28;20105;-65
2022/07/19 00:43:11;;;;;;;3.35;1.70;;;;;;;;;;5091541;28;20051;-65
2022/07/19 00:45:36;;;;;;;5.03;2.08;;;;;;;;;;5091709;28;20150;-64
2022/07/19 00:48:02;;;;;;;4.68;2.15;;;;;;;;;;5088218;28;20114;-65
2022/07/19 00:50:28;;;;;;;3.17;2.20;;;;;;;;;;5087695;28;20020;-64
2022/07/19 00:52:55;;;;;;;3.97;1.90;;;;;;;;;;5091553;28;20464;-64
2022/07/19 00:55:21;;;;;;;5.03;2.55;;;;;;;;;;5091579;28;20118;-64
2022/07/19 00:57:46;;;;;;;2.60;2.13;;;;;;;;;;5088262;28;20430;-64
2022/07/19 01:00:12;;;;;;;3.10;2.15;;;;;;;;;;5091442;28;20020;-65
2022/07/19 01:02:38;;;;;;;5.45;2.53;;;;;;;;;;5091505;28;20102;-64
2022/07/19 01:05:07;;;;;;;4.20;2.35;;;;;;;;;;5091030;28;20103;-63
2022/07/19 01:07:34;;;;;;;3.47;2.10;;;;;;;;;;5088804;28;20487;-65
2022/07/19 01:10:00;;;;;;;3.65;2.08;;;;;;;;;;5091250;28;20016;-65
2022/07/19 01:12:26;;;;;;;4.22;2.17;;;;;;;;;;5091228;28;20021;-65
2022/07/19 01:14:55;;;;;;;3.90;1.60;;;;;;;;;;5091538;28;20126;-65
2022/07/19 01:17:20;;;;;;;4.07;1.60;;;;;;;;;;5091799;28;20027;-65
2022/07/19 01:19:45;;;;;;;4.00;1.58;;;;;;;;;;5085009;28;20049;-65
2022/07/19 01:22:11;;;;;;;4.00;1.48;;;;;;;;;;5073123;28;20028;-65
2022/07/19 01:24:36;;;;;;;3.30;1.38;;;;;;;;;;5091034;28;20039;-65
2022/07/19 01:27:01;;;;;;;3.35;1.50;;;;;;;;;;5091279;28;20097;-65
2022/07/19 01:29:27;;;;;;;2.45;1.30;;;;;;;;;;5089227;28;20043;-64
2022/07/19 01:31:52;;;;;;;3.03;0.90;;;;;;;;;;5094945;28;20047;-64
2022/07/19 01:34:17;;;;;;;2.65;1.77;;;;;;;;;;5094123;28;20040;-65
2022/07/19 01:36:42;;;;;;;3.83;1.65;;;;;;;;;;5094133;28;20024;-65
2022/07/19 01:39:08;;;;;;;2.08;1.70;;;;;;;;;;5093169;28;20055;-65
2022/07/19 01:41:33;;;;;;;3.13;2.22;;;;;;;;;;5094683;28;20052;-64
2022/07/19 01:43:59;;;;;;;3.03;1.85;;;;;;;;;;5094183;28;20032;-65
2022/07/19 01:46:24;;;;;;;2.33;1.80;;;;;;;;;;5095284;28;20102;-64
2022/07/19 01:48:49;;;;;;;3.38;1.80;;;;;;;;;;5091334;28;20028;-65
2022/07/19 01:51:14;;;;;;;3.60;1.65;;;;;;;;;;5093559;28;20051;-64
2022/07/19 01:53:40;;;;;;;4.45;2.10;;;;;;;;;;5094035;28;20047;-64
2022/07/19 01:56:05;;;;;;;2.72;1.52;;;;;;;;;;5095211;28;20097;-65
2022/07/19 01:58:31;;;;;;;3.58;1.98;;;;;;;;;;5094018;28;20026;-64
2022/07/19 02:00:56;;;;;;;1.70;1.23;;;;;;;;;;5074933;28;20364;-64
2022/07/19 02:03:22;;;;;;;3.05;1.70;;;;;;;;;;5093550;28;20381;-64
2022/07/19 02:05:47;;;;;;;3.25;1.67;;;;;;;;;;5093745;28;20024;-65
2022/07/19 02:08:13;;;;;;;2.40;1.13;;;;;;;;;;5093673;28;20024;-64
2022/07/19 02:10:38;;;;;;;1.77;0.93;;;;;;;;;;5093576;28;20426;-65
2022/07/19 02:13:03;;;;;;;2.90;1.08;;;;;;;;;;5092686;28;20426;-64
2022/07/19 02:15:28;;;;;;;2.25;1.02;;;;;;;;;;5094523;28;20028;-65
2022/07/19 02:17:55;;;;;;;2.50;1.08;;;;;;;;;;5105980;28;20102;-65
2022/07/19 02:20:20;;;;;;;3.80;1.15;;;;;;;;;;5091039;28;20068;-65
2022/07/19 02:22:46;;;;;;;2.40;1.00;;;;;;;;;;5074149;28;20055;-65
2022/07/19 02:25:11;;;;;;;2.25;1.20;;;;;;;;;;5093999;28;20759;-65
2022/07/19 02:27:37;;;;;;;2.53;1.30;;;;;;;;;;5093964;28;20028;-64
2022/07/19 02:30:03;;;;;;;2.95;1.35;;;;;;;;;;5093923;28;20023;-64
2022/07/19 02:32:28;;;;;;;3.63;1.05;;;;;;;;;;5092724;28;20051;-65
2022/07/19 02:34:54;;;;;;;3.17;0.90;;;;;;;;;;5093552;28;20047;-65
2022/07/19 02:37:19;;;;;;;3.10;1.08;;;;;;;;;;5093262;28;20189;-65
2022/07/19 02:39:45;;;;;;;3.00;0.93;;;;;;;;;;5093292;28;20427;-64
2022/07/19 02:42:10;;;;;;;3.00;0.90;;;;;;;;;;5093587;28;20112;-65
2022/07/19 02:44:35;;;;;;;2.60;0.90;;;;;;;;;;5075237;28;20485;-64
2022/07/19 02:47:00;;;;;;;3.20;0.80;;;;;;;;;;5079080;28;20020;-65
2022/07/19 02:49:26;;;;;;;1.52;0.80;;;;;;;;;;5069639;28;20020;-64
2022/07/19 02:51:51;;;;;;;2.20;0.93;;;;;;;;;;5092748;28;20157;-64
2022/07/19 02:54:16;;;;;;;3.13;0.60;;;;;;;;;;5090586;28;20022;-65
2022/07/19 02:56:42;;;;;;;2.03;0.65;;;;;;;;;;5092935;28;20030;-65
2022/07/19 02:59:07;;;;;;;0.88;0.50;;;;;;;;;;5092195;28;20020;-65
2022/07/19 03:01:32;;;;;;;2.28;0.60;;;;;;;;;;5093359;28;20085;-65
2022/07/19 03:03:58;;;;;;;2.45;0.73;;;;;;;;;;5090516;28;20116;-64
2022/07/19 03:06:23;;;;;;;1.55;0.60;;;;;;;;;;5092767;28;20527;-64
2022/07/19 03:08:48;;;;;;;1.95;0.70;;;;;;;;;;5092661;28;20458;-64
2022/07/19 03:11:13;;;;;;;4.05;0.90;;;;;;;;;;5091950;28;20035;-65
2022/07/19 03:13:39;;;;;;;2.88;0.70;;;;;;;;;;5092809;28;20078;-64
2022/07/19 03:16:04;;;;;;;1.33;0.50;;;;;;;;;;5091339;28;20513;-65
2022/07/19 03:18:30;;;;;;;1.10;0.40;;;;;;;;;;5071348;28;20028;-65
2022/07/19 03:20:55;;;;;;;1.85;0.80;;;;;;;;;;5091742;28;20070;-65
2022/07/19 03:23:20;;;;;;;1.10;0.60;;;;;;;;;;5091681;28;20414;-65
2022/07/19 03:25:45;;;;;;;1.75;0.40;;;;;;;;;;5091170;28;20054;-64
2022/07/19 03:28:11;;;;;;;2.20;0.75;;;;;;;;;;5092536;28;20384;-65
2022/07/19 03:30:36;;;;;;;1.33;0.60;;;;;;;;;;5092732;28;20380;-65
2022/07/19 03:33:01;;;;;;;1.20;0.50;;;;;;;;;;5061632;28;20028;-65
2022/07/19 03:35:27;;;;;;;1.20;0.60;;;;;;;;;;5074077;28;20020;-65
2022/07/19 03:37:52;;;;;;;2.70;0.82;;;;;;;;;;5091677;28;20097;-63
2022/07/19 03:40:17;;;;;;;2.70;0.70;;;;;;;;;;5092275;28;20038;-65
2022/07/19 03:42:43;;;;;;;3.70;0.70;;;;;;;;;;5092976;28;20024;-64
2022/07/19 03:45:08;;;;;;;2.70;0.52;;;;;;;;;;5092633;28;20120;-64
2022/07/19 03:47:34;;;;;;;1.60;1.02;;;;;;;;;;5073215;28;20024;-64
2022/07/19 03:49:59;;;;;;;2.30;0.77;;;;;;;;;;5087124;28;20031;-64
2022/07/19 03:52:25;;;;;;;2.15;0.70;;;;;;;;;;5091687;28;20028;-65
2022/07/19 03:54:50;;;;;;;2.88;0.85;;;;;;;;;;5091838;28;20028;-65
2022/07/19 03:57:15;;;;;;;0.85;0.52;;;;;;;;;;5086941;28;20020;-64
2022/07/19 03:59:41;;;;;;;2.17;0.50;;;;;;;;;;5078917;28;20047;-64
2022/07/19 04:02:06;;;;;;;3.92;0.80;;;;;;;;;;5091120;28;20035;-64
2022/07/19 04:04:32;;;;;;;2.15;0.47;;;;;;;;;;5092674;28;20399;-65
2022/07/19 04:06:57;;;;;;;1.77;0.68;;;;;;;;;;5089757;28;20081;-64
2022/07/19 04:09:23;;;;;;;0.70;0.60;;;;;;;;;;5092113;28;20065;-65
2022/07/19 04:11:48;;;;;;;1.73;0.57;;;;;;;;;;5073770;28;20028;-65
2022/07/19 04:14:13;;;;;;;1.48;0.47;;;;;;;;;;5091321;28;20035;-65
2022/07/19 04:16:39;;;;;;;1.85;0.70;;;;;;;;;;5092912;28;20024;-65
2022/07/19 04:19:04;;;;;;;3.75;0.65;;;;;;;;;;5091029;28;20449;-63
2022/07/19 04:21:29;;;;;;;2.15;0.60;;;;;;;;;;5091441;28;20063;-65
2022/07/19 04:23:55;;;;;;;3.05;0.50;;;;;;;;;;5091264;28;20028;-64
2022/07/19 04:26:20;;;;;;;2.28;0.60;;;;;;;;;;5091886;28;20538;-65
2022/07/19 04:28:45;;;;;;;3.83;0.57;;;;;;;;;;5090546;28;20028;-65
2022/07/19 04:31:10;;;;;;;2.60;0.68;;;;;;;;;;5090382;28;20031;-65
2022/07/19 04:33:36;;;;;;;4.30;0.73;;;;;;;;;;5090353;28;20099;-64
2022/07/19 04:36:01;;;;;;;6.30;1.10;;;;;;;;;;5097838;28;20047;-65
2022/07/19 04:38:26;;;;;;;8.88;1.23;;;;;;;;;;5091782;28;20012;-64
2022/07/19 04:40:52;;;;;;;7.82;1.20;;;;;;;;;;5107507;28;20372;-65
2022/07/19 04:43:17;;;;;;;12.55;1.60;;;;;;;;;;5094297;28;20183;-64
2022/07/19 04:45:44;;;;;;;7.35;1.30;;;;;;;;;;5092131;28;20020;-64
2022/07/19 04:48:09;;;;;;;7.65;1.13;;;;;;;;;;5090386;28;20028;-64
2022/07/19 04:50:35;;;;;;;6.40;0.90;;;;;;;;;;5088424;28;20035;-63
2022/07/19 04:53:00;;;;;;;6.25;1.67;;;;;;;;;;5091677;28;20020;-65
2022/07/19 04:55:25;;;;;;;5.35;1.35;;;;;;;;;;5091506;28;20434;-65
2022/07/19 04:57:51;;;;;;;6.05;1.20;;;;;;;;;;5091260;28;20505;-65
2022/07/19 05:00:16;;;;;;;2.33;1.00;;;;;;;;;;5070907;28;20035;-64
2022/07/19 05:02:42;;;;;;;5.25;1.00;;;;;;;;;;5092266;28;20316;-65
2022/07/19 05:05:07;;;;;;;2.72;0.70;;;;;;;;;;5095064;28;20024;-64
2022/07/19 05:07:32;;;;;;;2.85;0.65;;;;;;;;;;5094038;28;20150;-65
2022/07/19 05:09:58;;;;;;;7.25;1.13;;;;;;;;;;5077272;28;20020;-64
2022/07/19 05:12:23;;;;;;;4.32;0.60;;;;;;;;;;5067307;28;20016;-65
2022/07/19 05:14:48;;;;;;;2.53;0.80;;;;;;;;;;5105051;28;20024;-65
2022/07/19 05:17:14;;;;;;;3.90;1.10;;;;;;;;;;5097014;28;20039;-65
2022/07/19 05:19:40;;;;;;;3.65;0.90;;;;;;;;;;5090985;28;20031;-65
2022/07/19 05:22:05;;;;;;;4.90;1.15;;;;;;;;;;5093656;28;20469;-64
2022/07/19 05:24:30;;;;;;;2.83;0.70;;;;;;;;;;5090852;28;20028;-65
2022/07/19 05:26:55;;;;;;;2.50;0.90;;;;;;;;;;5094020;28;20020;-64
2022/07/19 05:29:21;;;;;;;4.95;0.85;;;;;;;;;;5094015;28;20032;-65
2022/07/19 05:31:46;;;;;;;2.67;0.80;;;;;;;;;;5092252;28;20063;-65
2022/07/19 05:34:12;;;;;;;5.38;0.55;;;;;;;;;;5094970;28;20061;-65
2022/07/19 05:36:37;;;;;;;3.50;0.60;;;;;;;;;;5094309;28;20043;-64
2022/07/19 05:39:03;;;;;;;2.05;0.52;;;;;;;;;;5095088;28;20380;-65
2022/07/19 05:41:28;;;;;;;3.28;0.70;;;;;;;;;;5094599;28;20103;-65
2022/07/19 05:43:54;;;;;;;4.20;0.80;;;;;;;;;;5091736;28;20024;-65
2022/07/19 05:46:19;;;;;;;4.55;1.20;;;;;;;;;;5092256;28;20032;-65
2022/07/19 05:48:45;;;;;;;6.78;1.33;;;;;;;;;;5094620;28;20027;-64
2022/07/19 05:51:10;;;;;;;2.35;0.75;;;;;;;;;;5093207;28;20412;-64
2022/07/19 05:53:36;;;;;;;2.90;0.65;;;;;;;;;;5058418;28;20103;-64
2022/07/19 05:56:01;;;;;;;3.92;0.68;;;;;;;;;;5071374;28;20073;-64
2022/07/19 05:58:27;;;;;;;2.45;0.63;;;;;;;;;;5074152;28;20066;-64
2022/07/19 06:03:36;;;;;;;4.68;1.48;;;;;;;;;;5072985;28;20101;-64
2022/07/19 06:06:01;;;;;;;3.20;0.80;;;;;;;;;;5089846;28;20020;-64
2022/07/19 06:08:26;;;;;;;6.43;1.08;;;;;;;;;;5085457;28;20510;-63
2022/07/19 06:10:52;;;;;;;2.80;0.75;;;;;;;;;;5074540;28;20460;-64
2022/07/19 06:13:17;;;;;;;4.57;1.42;;;;;;;;;;5072601;28;20024;-64
2022/07/19 06:15:42;;;;;;;6.80;1.40;;;;;;;;;;5091929;28;20055;-65
2022/07/19 06:18:08;;;;;;;4.40;1.40;;;;;;;;;;5092056;28;20089;-65
2022/07/19 06:20:33;;;;;;;3.40;1.35;;;;;;;;;;5090243;28;20055;-64
2022/07/19 06:22:58;;;;;;;2.35;0.60;;;;;;;;;;5095515;28;20542;-64
2022/07/19 06:25:24;;;;;;;3.65;0.50;;;;;;;;;;5095074;28;20085;-64
2022/07/19 06:27:49;;;;;;;2.97;0.60;;;;;;;;;;5093328;28;20030;-64
2022/07/19 06:30:14;;;;;;;4.82;0.95;;;;;;;;;;5093500;28;20501;-63
2022/07/19 06:32:39;;;;;;;3.88;0.60;;;;;;;;;;5075368;28;20067;-64
2022/07/19 06:35:05;;;;;;;2.55;0.90;;;;;;;;;;5101621;28;20020;-63
2022/07/19 06:37:30;;;;;;;1.98;0.60;;;;;;;;;;5091876;28;20530;-64
2022/07/19 06:39:55;;;;;;;3.90;0.80;;;;;;;;;;5090679;28;20021;-63
2022/07/19 06:42:21;;;;;;;5.03;1.00;;;;;;;;;;5082094;28;20458;-65
2022/07/19 06:44:46;;;;;;;1.98;0.80;;;;;;;;;;5093751;28;20063;-64
2022/07/19 06:47:11;;;;;;;5.28;1.10;;;;;;;;;;5080344;28;20028;-64
2022/07/19 06:49:37;;;;;;;3.40;0.85;;;;;;;;;;5092583;28;20048;-64
2022/07/19 06:52:02;;;;;;;1.85;0.70;;;;;;;;;;5110714;28;20079;-64
2022/07/19 06:54:27;;;;;;;4.07;0.75;;;;;;;;;;5089823;28;20095;-64
2022/07/19 06:56:53;;;;;;;2.08;0.77;;;;;;;;;;5084980;28;20040;-64
2022/07/19 06:59:19;;;;;;;2.90;0.43;;;;;;;;;;5067578;28;20016;-64
2022/07/19 07:01:44;;;;;;;2.42;0.77;;;;;;;;;;5081046;28;20109;-65
2022/07/19 07:04:09;;;;;;;2.90;0.60;;;;;;;;;;5089174;28;20028;-64
2022/07/19 07:06:34;;;;;;;2.75;0.68;;;;;;;;;;5084102;28;20093;-63
2022/07/19 07:09:01;;;;;;;4.05;1.00;;;;;;;;;;5091374;28;20055;-64
2022/07/19 07:11:26;;;;;;;2.85;0.88;;;;;;;;;;5074317;28;20102;-64
2022/07/19 07:13:51;;;;;;;2.55;0.70;;;;;;;;;;5092788;28;20054;-64
2022/07/19 07:16:16;;;;;;;2.25;0.50;;;;;;;;;;5091359;28;20088;-64
2022/07/19 07:18:42;;;;;;;2.60;0.57;;;;;;;;;;5078866;28;20460;-64
2022/07/19 07:21:07;;;;;;;2.75;0.60;;;;;;;;;;5094758;28;20044;-64
2022/07/19 07:23:32;;;;;;;1.55;0.50;;;;;;;;;;5087871;28;20054;-64
2022/07/19 07:25:58;;;;;;;4.28;0.55;;;;;;;;;;5097233;28;20042;-64
2022/07/19 07:28:23;;;;;;;1.20;0.40;;;;;;;;;;5082753;28;20392;-63
2022/07/19 07:30:48;;;;;;;3.50;0.52;;;;;;;;;;5085569;28;20081;-64
2022/07/19 07:33:14;;;;;;;2.13;0.40;;;;;;;;;;5092455;28;20024;-64
2022/07/19 07:35:39;;;;;;;2.10;0.90;;;;;;;;;;5091808;28;20063;-64
2022/07/19 07:38:04;;;;;;;3.22;0.50;;;;;;;;;;5087145;28;20302;-62
2022/07/19 07:40:29;;;;;;;2.55;0.43;;;;;;;;;;5090961;28;20096;-63
2022/07/19 07:42:55;;;;;;;3.80;1.10;;;;;;;;;;5092239;28;20107;-63
2022/07/19 07:45:20;;;;;;;4.22;0.65;;;;;;;;;;5092159;28;20446;-64
2022/07/19 07:47:45;;;;;;;1.35;0.40;;;;;;;;;;5076122;28;20043;-63
2022/07/19 07:50:11;;;;;;;4.93;0.60;;;;;;;;;;5094173;28;20028;-63
2022/07/19 07:52:36;;;;;;;3.10;0.70;;;;;;;;;;5087373;28;20020;-63
2022/07/19 07:55:02;;;;;;;0.70;0.30;;;;;;;;;;5089928;28;20013;-63
2022/07/19 07:57:28;;;;;;;1.77;0.40;;;;;;;;;;5090923;28;20498;-63
2022/07/19 07:59:53;;;;;;;2.97;0.65;;;;;;;;;;5089388;28;20024;-64
2022/07/19 08:02:18;;;;;;;1.30;0.40;;;;;;;;;;5091397;28;20027;-64
2022/07/19 08:04:43;;;;;;;2.47;0.50;;;;;;;;;;5087202;28;20396;-64
2022/07/19 08:07:09;;;;;;;2.40;0.50;;;;;;;;;;5086673;28;20166;-64
2022/07/19 08:09:34;;;;;;;1.55;0.45;;;;;;;;;;5078972;28;20020;-64
2022/07/19 08:11:59;;;;;;;0.50;0.40;;;;;;;;;;5088941;28;20028;-64
2022/07/19 08:14:25;;;;;;;1.25;0.52;;;;;;;;;;5097172;28;20016;-63
2022/07/19 08:16:50;;;;;;;0.70;0.38;;;;;;;;;;5090947;28;20446;-64
2022/07/19 08:19:15;;;;;;;2.75;0.50;;;;;;;;;;5089064;28;20023;-64
2022/07/19 08:21:40;;;;;;;2.03;0.35;;;;;;;;;;5097471;28;20091;-64
2022/07/19 08:24:06;;;;;;;4.35;0.30;;;;;;;;;;5094975;28;20032;-64
2022/07/19 08:26:31;;;;;;;2.40;0.43;;;;;;;;;;5093203;28;20020;-64
2022/07/19 08:28:57;;;;;;;1.13;0.47;;;;;;;;;;5108116;28;20107;-64
2022/07/19 08:31:22;;;;;;;1.75;0.47;;;;;;;;;;5087346;28;20031;-65
2022/07/19 08:33:47;;;;;;;2.75;0.32;;;;;;;;;;5090518;28;20016;-65
2022/07/19 08:36:13;;;;;;;0.68;0.40;;;;;;;;;;5089154;28;20020;-65
2022/07/19 08:38:38;;;;;;;2.08;0.32;;;;;;;;;;5094342;28;20020;-65
2022/07/19 08:41:04;;;;;;;1.92;0.45;;;;;;;;;;5079392;28;20507;-65
2022/07/19 08:43:29;;;;;;;0.60;0.50;;;;;;;;;;5075213;28;20503;-65
2022/07/19 08:45:57;;;;;;;2.92;0.45;;;;;;;;;;5093149;28;20073;-65
2022/07/19 08:48:23;;;;;;;1.90;0.60;;;;;;;;;;5091728;28;20880;-64
2022/07/19 08:50:50;;;;;;;2.92;0.60;;;;;;;;;;5092200;28;20071;-65
2022/07/19 08:53:15;;;;;;;1.13;0.43;;;;;;;;;;5108119;28;20020;-64
2022/07/19 08:55:41;;;;;;;2.05;0.52;;;;;;;;;;5092698;28;20035;-66
2022/07/19 08:58:06;;;;;;;1.45;0.70;;;;;;;;;;5092819;28;20408;-66
2022/07/19 09:00:32;;;;;;;2.38;0.80;;;;;;;;;;5085105;28;20024;-65
2022/07/19 09:03:01;;;;;;;1.27;0.43;;;;;;;;;;5086070;28;20158;-65
2022/07/19 09:05:27;;;;;;;2.22;0.50;;;;;;;;;;5089739;28;20032;-65
2022/07/19 09:08:18;;;;;;;1.15;0.47;;;;;;;;;;5090808;28;20072;-65
2022/07/19 09:11:14;;;;;;;3.00;0.50;;;;;;;;;;5089834;28;20085;-64
2022/07/19 09:13:30;;;;;;;2.78;0.60;;;;;;;;;;5093747;28;20052;-64
2022/07/19 09:15:55;;;;;;;1.90;0.60;;;;;;;;;;5091609;28;20059;-64
2022/07/19 09:18:22;;;;;;;0.88;0.40;;;;;;;;;;5085760;28;21105;-64
2022/07/19 09:20:49;;;;;;;1.80;0.40;;;;;;;;;;5088604;28;20048;-63
2022/07/19 09:23:15;;;;;;;2.47;0.60;;;;;;;;;;5076286;28;20090;-65
2022/07/19 09:25:54;;;;;;;3.42;0.50;;;;;;;;;;5092771;28;20054;-64
2022/07/19 09:28:20;;;;;;;2.40;0.68;;;;;;;;;;5089415;28;20012;-64
2022/07/19 09:30:46;;;;;;;1.60;0.50;;;;;;;;;;5093394;28;20039;-63
2022/07/19 09:33:20;;;;;;;1.50;0.52;;;;;;;;;;5093995;28;20067;-64
2022/07/19 09:35:46;;;;;;;1.33;0.50;;;;;;;;;;5089330;28;20031;-64
2022/07/19 09:38:15;;;;;;;1.25;0.50;;;;;;;;;;5091613;28;20028;-64
2022/07/19 09:40:40;;;;;;;2.67;0.52;;;;;;;;;;5083418;28;20071;-64
2022/07/19 09:43:05;;;;;;;3.38;0.50;;;;;;;;;;5088721;28;20055;-65
2022/07/19 09:45:32;;;;;;;1.75;0.50;;;;;;;;;;5093236;28;20059;-65
2022/07/19 09:47:58;;;;;;;1.40;0.63;;;;;;;;;;5091475;28;20031;-64
2022/07/19 09:50:24;;;;;;;1.42;0.47;;;;;;;;;;5087981;28;20020;-64
2022/07/19 09:52:50;;;;;;;1.92;0.45;;;;;;;;;;5078074;28;20077;-64
2022/07/19 09:55:16;;;;;;;1.73;0.50;;;;;;;;;;5091177;28;20046;-64
2022/07/19 09:57:42;;;;;;;4.43;0.60;;;;;;;;;;5092059;28;20031;-64
2022/07/19 10:00:09;;;;;;;2.03;0.70;;;;;;;;;;5094123;28;20016;-63
2022/07/19 10:02:35;;;;;;;0.85;0.50;;;;;;;;;;5089654;28;20416;-65
2022/07/19 10:05:01;;;;;;;0.75;0.40;;;;;;;;;;5080083;28;20047;-64
2022/07/19 10:07:27;;;;;;;2.13;0.50;;;;;;;;;;5096794;28;20541;-64
2022/07/19 10:09:52;;;;;;;1.90;0.40;;;;;;;;;;5093108;28;20023;-65
2022/07/19 10:12:18;;;;;;;7.20;1.38;;;;;;;;;;5093773;28;20047;-65
2022/07/19 10:14:43;;;;;;;2.35;0.45;;;;;;;;;;5089067;28;20434;-65
2022/07/19 10:17:14;;;;;;;1.83;0.70;;;;;;;;;;5088880;28;20103;-65
2022/07/19 10:19:41;;;;;;;2.75;0.50;;;;;;;;;;5092160;28;20093;-64
2022/07/19 10:22:09;;;;;;;2.80;0.60;;;;;;;;;;5092437;28;20120;-65
2022/07/19 10:24:49;;;;;;;1.98;0.60;;;;;;;;;;5085489;28;20043;-64
2022/07/19 10:27:15;;;;;;;2.33;0.50;;;;;;;;;;5090016;28;20024;-64
2022/07/19 10:29:41;;;;;;;3.28;0.70;;;;;;;;;;5093235;28;20038;-64
2022/07/19 10:32:08;;;;;;;4.13;0.70;;;;;;;;;;5093421;28;20020;-65
2022/07/19 10:34:33;;;;;;;1.98;0.55;;;;;;;;;;5087759;28;20008;-65
2022/07/19 10:36:59;;;;;;;3.85;0.52;;;;;;;;;;5073329;28;20046;-65
2022/07/19 10:39:27;;;;;;;2.17;0.40;;;;;;;;;;5090802;28;20058;-65
2022/07/19 10:42:01;;;;;;;2.03;0.60;;;;;;;;;;5091793;28;20055;-64
2022/07/19 10:44:26;;;;;;;;;;;;;;;;;;5091708;28;20091;-64
2022/07/19 10:46:52;;;;;;;2.30;0.47;;;;;;;;;;5091803;28;20438;-64
2022/07/19 10:49:36;;;;;;;2.35;0.57;;;;;;;;;;5086304;28;20070;-65
2022/07/19 10:52:19;;;;;;;1.67;0.70;;;;;;;;;;5085380;28;20488;-65
2022/07/19 10:54:45;;;;;;;2.43;0.50;;;;;;;;;;5091286;28;20032;-65
2022/07/19 10:57:10;;;;;;;0.80;0.40;;;;;;;;;;5088425;28;20020;-64
2022/07/19 10:59:40;;;;;;;2.45;0.90;;;;;;;;;;5092794;28;20081;-65
2022/07/19 11:02:06;;;;;;;1.67;0.60;;;;;;;;;;5092117;28;20452;-65
2022/07/19 11:04:33;;;;;;;1.05;0.50;;;;;;;;;;5085774;28;20511;-65
2022/07/19 11:07:10;;;;;;;2.72;0.50;;;;;;;;;;5076308;28;20033;-64
2022/07/19 11:09:39;;;;;;;2.08;0.55;;;;;;;;;;5091224;28;20434;-64
2022/07/19 11:12:24;;;;;;;2.15;0.40;;;;;;;;;;5092853;28;20077;-65
2022/07/19 11:14:50;;;;;;;3.47;0.65;;;;;;;;;;5089140;28;20031;-64
2022/07/19 11:17:15;;;;;;;1.60;0.50;;;;;;;;;;5083844;28;20020;-64
2022/07/19 11:19:56;;;;;;;1.23;0.70;;;;;;;;;;5084156;28;20472;-64
2022/07/19 11:22:21;;;;;;;1.92;0.52;;;;;;;;;;5090367;28;20104;-64
2022/07/19 11:24:47;;;;;;;2.03;0.40;;;;;;;;;;5092227;28;20183;-64
2022/07/19 11:27:12;;;;;;;2.63;0.65;;;;;;;;;;5080599;28;20016;-64
2022/07/19 11:29:57;;;;;;;2.65;0.40;;;;;;;;;;5091440;28;20047;-64
2022/07/19 11:32:22;;;;;;;3.55;0.52;;;;;;;;;;5058301;28;20031;-64
2022/07/19 11:34:55;;;;;;;1.13;0.60;;;;;;;;;;5084725;28;20023;-64
2022/07/19 11:37:22;;;;;;;1.77;0.88;;;;;;;;;;5089607;28;20036;-64
2022/07/19 11:39:49;;;;;;;1.38;0.50;;;;;;;;;;5081153;28;20024;-63
2022/07/19 11:42:15;;;;;;;2.72;0.80;;;;;;;;;;5092918;28;20039;-64
2022/07/19 11:44:40;;;;;;;1.65;0.50;;;;;;;;;;5077106;28;20467;-64
2022/07/19 11:47:05;;;;;;;2.88;0.57;;;;;;;;;;5082657;28;20052;-64
2022/07/19 11:49:38;;;;;;;2.50;0.55;;;;;;;;;;5078138;28;20048;-63
2022/07/19 11:52:03;;;;;;;2.60;0.40;;;;;;;;;;5091378;28;20085;-64
2022/07/19 11:54:28;;;;;;;1.80;0.50;;;;;;;;;;5086502;28;20103;-64
2022/07/19 11:56:53;;;;;;;2.03;0.70;;;;;;;;;;5083645;28;20430;-64
2022/07/19 11:59:19;;;;;;;2.10;0.40;;;;;;;;;;5062426;28;20274;-64
2022/07/19 12:01:44;;;;;;;3.37;0.60;;;;;;;;;;5090627;28;20274;-64
2022/07/19 12:04:13;;;;;;;2.25;0.60;;;;;;;;;;5090785;28;20273;-64
2022/07/19 12:06:39;;;;;;;0.98;0.47;;;;;;;;;;5086264;28;20032;-65
2022/07/19 12:09:09;;;;;;;2.55;0.82;;;;;;;;;;5088008;28;20016;-64
2022/07/19 12:11:38;;;;;;;1.50;0.70;;;;;;;;;;5089919;28;20465;-64
2022/07/19 12:14:16;;;;;;;1.25;0.50;;;;;;;;;;5059383;28;20412;-65
2022/07/19 12:16:41;;;;;;;1.63;0.40;;;;;;;;;;5088024;28;20020;-65
2022/07/19 12:19:10;;;;;;;2.60;0.50;;;;;;;;;;5082175;28;20463;-64
2022/07/19 12:21:37;;;;;;;1.77;0.55;;;;;;;;;;5088826;28;20507;-64
2022/07/19 12:24:17;;;;;;;1.33;0.40;;;;;;;;;;5079555;28;20052;-64
2022/07/19 12:26:43;;;;;;;3.33;0.57;;;;;;;;;;5086508;28;20043;-64
2022/07/19 12:29:19;;;;;;;1.02;0.40;;;;;;;;;;5087353;28;20031;-62
2022/07/19 12:31:45;;;;;;;0.70;0.60;;;;;;;;;;5084325;28;20028;-62
2022/07/19 12:34:11;;;;;;;1.20;0.50;;;;;;;;;;5074962;28;20377;-63
2022/07/19 12:36:36;;;;;;;2.65;0.50;;;;;;;;;;5080643;28;20074;-63
2022/07/19 12:39:02;;;;;;;2.50;0.40;;;;;;;;;;5086871;28;20063;-64
2022/07/19 12:41:27;;;;;;;3.67;0.60;;;;;;;;;;5088682;28;20051;-63
2022/07/19 12:43:52;;;;;;;2.17;0.50;;;;;;;;;;5072553;28;20038;-64
2022/07/19 12:46:18;;;;;;;1.30;0.40;;;;;;;;;;5091635;28;20024;-64
2022/07/19 12:48:43;;;;;;;2.90;0.60;;;;;;;;;;5083345;28;20020;-63
2022/07/19 12:51:08;;;;;;;1.37;0.83;;;;;;;;;;5069229;28;20081;-62
2022/07/19 12:53:33;;;;;;;2.73;0.40;;;;;;;;;;5091318;28;20258;-64
2022/07/19 12:55:59;;;;;;;2.70;0.40;;;;;;;;;;5090117;28;20028;-64
2022/07/19 13:01:12;;;;;;;1.20;0.40;;;;;;;;;;5083943;28;21265;-63
2022/07/19 13:03:37;;;;;;;0.82;0.60;;;;;;;;;;5060951;28;20109;-64
2022/07/19 13:06:03;;;;;;;3.60;0.63;;;;;;;;;;5082273;28;20023;-64
2022/07/19 13:08:28;;;;;;;1.00;0.50;;;;;;;;;;5089006;28;20020;-63
2022/07/19 13:10:54;;;;;;;1.63;0.67;;;;;;;;;;5078211;28;20070;-64
2022/07/19 13:13:19;;;;;;;2.25;0.70;;;;;;;;;;5064986;28;20376;-63
2022/07/19 13:15:44;;;;;;;1.90;0.67;;;;;;;;;;5090434;28;20036;-64
2022/07/19 13:18:10;;;;;;;1.97;0.63;;;;;;;;;;5087808;28;20047;-63
2022/07/19 13:20:35;;;;;;;2.80;0.50;;;;;;;;;;5085012;28;20067;-64
2022/07/19 13:23:00;;;;;;;1.90;0.67;;;;;;;;;;5071863;28;20036;-64
2022/07/19 13:25:26;;;;;;;2.37;0.63;;;;;;;;;;5092996;28;20293;-64
2022/07/19 13:27:51;;;;;;;2.97;0.70;;;;;;;;;;5089478;28;20493;-64
2022/07/19 13:30:16;;;;;;;2.70;0.70;;;;;;;;;;5092544;28;20281;-63
2022/07/19 13:32:41;;;;;;;3.17;0.73;;;;;;;;;;5094440;28;20293;-63
2022/07/19 13:35:07;;;;;;;0.97;0.60;;;;;;;;;;5093898;28;20024;-63
2022/07/19 13:37:32;;;;;;;3.13;0.60;;;;;;;;;;5094991;28;20474;-63
2022/07/19 13:39:58;;;;;;;0.90;0.40;;;;;;;;;;5094278;28;20091;-62
2022/07/19 13:42:23;;;;;;;1.77;0.50;;;;;;;;;;5093429;28;20028;-64
2022/07/19 13:44:49;;;;;;;1.45;0.57;;;;;;;;;;5092060;28;20017;-63
2022/07/19 13:47:14;;;;;;;1.90;0.60;;;;;;;;;;5090556;28;20077;-63
2022/07/19 13:49:39;;;;;;;3.93;0.60;;;;;;;;;;5084798;28;20054;-64
2022/07/19 13:52:04;;;;;;;1.17;0.50;;;;;;;;;;5092310;28;20032;-64
2022/07/19 13:54:30;;;;;;;2.67;0.53;;;;;;;;;;5092290;28;20110;-64
2022/07/19 13:56:55;;;;;;;1.37;0.90;;;;;;;;;;5093459;28;20024;-64
2022/07/19 13:59:20;;;;;;;2.63;1.07;;;;;;;;;;5073952;28;20085;-62
2022/07/19 14:01:46;;;;;;;4.22;1.60;;;;;;;;;;5092446;28;20028;-62
2022/07/19 14:04:11;;;;;;;1.63;0.70;;;;;;;;;;5093855;28;20079;-63
2022/07/19 14:06:36;;;;;;;1.60;0.60;;;;;;;;;;5071597;28;20624;-64
2022/07/19 14:09:02;;;;;;;2.10;0.53;;;;;;;;;;5091734;28;20529;-63
2022/07/19 14:11:27;;;;;;;0.82;0.75;;;;;;;;;;5094000;28;20039;-64
2022/07/19 14:13:52;;;;;;;1.73;0.60;;;;;;;;;;5094554;28;20027;-64
2022/07/19 14:16:17;;;;;;;2.33;0.80;;;;;;;;;;5093596;28;20028;-63
2022/07/19 14:18:43;;;;;;;2.13;0.60;;;;;;;;;;5086360;28;20279;-64
2022/07/19 14:21:08;;;;;;;1.87;0.70;;;;;;;;;;5090704;28;20121;-63
2022/07/19 14:23:33;;;;;;;1.47;0.60;;;;;;;;;;5093630;28;20042;-64
2022/07/19 14:25:59;;;;;;;1.50;0.50;;;;;;;;;;5093759;28;20354;-63
2022/07/19 14:28:24;;;;;;;1.37;0.50;;;;;;;;;;5093398;28;20016;-63
2022/07/19 14:30:50;;;;;;;3.50;0.50;;;;;;;;;;5090933;28;20381;-64
2022/07/19 14:33:15;;;;;;;1.48;0.50;;;;;;;;;;5092435;28;20024;-64
2022/07/19 14:35:40;;;;;;;2.60;0.50;;;;;;;;;;5091431;28;20021;-63
2022/07/19 14:38:06;;;;;;;2.73;0.60;;;;;;;;;;5074913;28;20027;-63
2022/07/19 14:40:31;;;;;;;1.63;0.60;;;;;;;;;;5091878;28;20492;-64
2022/07/19 14:42:56;;;;;;;1.07;0.60;;;;;;;;;;5093377;28;20152;-64